sensor_id;sensor_type;location;lat;lon;timestamp;P1;durP1;ratioP1;P2;durP2;ratioP2
8419;SDS011;4247;48.550;8.822;2022-08-01T00:01:53;0.50;;;0.50;;
8419;SDS011;4247;48.550;8.822;2022-08-01T00:04:19;3.53;;;0.90;;
8419;SDS011;4247;48.550;8.822;2022-08-01T00:06:46;1.43;;;0.70;;
8419;SDS011;4247;48.550;8.822;2022-08-01T00:09:14;2.10;;;1.13;;
8419;SDS011;4247;48.550;8.822;2022-08-01T00:11:41;0.60;;;0.60;;
8419;SDS011;4247;48.550;8.822;2022-08-01T00:14:08;0.67;;;0.67;;
8419;SDS011;4247;48.550;8.822;2022-08-01T00:16:35;1.70;;;0.70;;
8419;SDS011;4247;48.550;8.822;2022-08-01T00:19:04;0.67;;;0.67;;
8419;SDS011;4247;48.550;8.822;2022-08-01T00:21:31;1.97;;;0.60;;
8419;SDS011;4247;48.550;8.822;2022-08-01T00:23:58;1.83;;;0.80;;
8419;SDS011;4247;48.550;8.822;2022-08-01T00:26:25;0.97;;;0.63;;
8419;SDS011;4247;48.550;8.822;2022-08-01T00:28:52;0.70;;;0.70;;
8419;SDS011;4247;48.550;8.822;2022-08-01T00:31:20;0.57;;;0.57;;
8419;SDS011;4247;48.550;8.822;2022-08-01T00:33:47;0.87;;;0.87;;
8419;SDS011;4247;48.550;8.822;2022-08-01T00:36:15;1.47;;;1.00;;
8419;SDS011;4247;48.550;8.822;2022-08-01T00:38:42;1.67;;;0.60;;
8419;SDS011;4247;48.550;8.822;2022-08-01T00:41:09;3.13;;;0.70;;
8419;SDS011;4247;48.550;8.822;2022-08-01T00:43:36;0.53;;;0.50;;
8419;SDS011;4247;48.550;8.822;2022-08-01T00:46:03;3.17;;;0.80;;
8419;SDS011;4247;48.550;8.822;2022-08-01T00:48:29;0.70;;;0.67;;
8419;SDS011;4247;48.550;8.822;2022-08-01T00:50:56;1.43;;;0.77;;
8419;SDS011;4247;48.550;8.822;2022-08-01T00:53:25;1.90;;;0.60;;
8419;SDS011;4247;48.550;8.822;2022-08-01T00:55:53;1.47;;;0.70;;
8419;SDS011;4247;48.550;8.822;2022-08-01T00:58:20;0.90;;;0.90;;
8419;SDS011;4247;48.550;8.822;2022-08-01T01:00:47;2.23;;;0.70;;
8419;SDS011;4247;48.550;8.822;2022-08-01T01:03:15;1.13;;;0.87;;
8419;SDS011;4247;48.550;8.822;2022-08-01T01:05:44;1.40;;;0.90;;
8419;SDS011;4247;48.550;8.822;2022-08-01T01:08:22;0.90;;;0.70;;
8419;SDS011;4247;48.550;8.822;2022-08-01T01:10:57;1.30;;;0.90;;
8419;SDS011;4247;48.550;8.822;2022-08-01T01:13:31;1.00;;;0.90;;
8419;SDS011;4247;48.550;8.822;2022-08-01T01:16:04;2.13;;;0.70;;
8419;SDS011;4247;48.550;8.822;2022-08-01T01:18:35;0.70;;;0.70;;
8419;SDS011;4247;48.550;8.822;2022-08-01T01:21:07;0.80;;;0.80;;
8419;SDS011;4247;48.550;8.822;2022-08-01T01:23:46;0.77;;;0.77;;
8419;SDS011;4247;48.550;8.822;2022-08-01T01:26:28;0.87;;;0.87;;
8419;SDS011;4247;48.550;8.822;2022-08-01T01:29:08;0.87;;;0.73;;
8419;SDS011;4247;48.550;8.822;2022-08-01T01:31:40;2.23;;;1.60;;
8419;SDS011;4247;48.550;8.822;2022-08-01T01:34:12;2.23;;;0.80;;
8419;SDS011;4247;48.550;8.822;2022-08-01T01:36:41;0.73;;;0.73;;
8419;SDS011;4247;48.550;8.822;2022-08-01T01:39:09;0.90;;;0.83;;
8419;SDS011;4247;48.550;8.822;2022-08-01T01:41:39;1.70;;;0.90;;
8419;SDS011;4247;48.550;8.822;2022-08-01T01:44:08;1.07;;;0.83;;
8419;SDS011;4247;48.550;8.822;2022-08-01T01:46:36;2.33;;;1.30;;
8419;SDS011;4247;48.550;8.822;2022-08-01T01:49:04;5.40;;;0.80;;
8419;SDS011;4247;48.550;8.822;2022-08-01T01:51:35;2.00;;;1.47;;
8419;SDS011;4247;48.550;8.822;2022-08-01T01:54:04;1.10;;;1.00;;
8419;SDS011;4247;48.550;8.822;2022-08-01T01:56:35;1.30;;;0.77;;
8419;SDS011;4247;48.550;8.822;2022-08-01T01:59:15;1.93;;;1.10;;
8419;SDS011;4247;48.550;8.822;2022-08-01T02:01:45;1.30;;;1.20;;
8419;SDS011;4247;48.550;8.822;2022-08-01T02:04:17;0.70;;;0.70;;
8419;SDS011;4247;48.550;8.822;2022-08-01T02:06:46;0.83;;;0.70;;
8419;SDS011;4247;48.550;8.822;2022-08-01T02:09:15;1.90;;;0.80;;
8419;SDS011;4247;48.550;8.822;2022-08-01T02:11:43;2.20;;;1.00;;
8419;SDS011;4247;48.550;8.822;2022-08-01T02:14:12;0.90;;;0.90;;
8419;SDS011;4247;48.550;8.822;2022-08-01T02:16:44;0.90;;;0.90;;
8419;SDS011;4247;48.550;8.822;2022-08-01T02:19:13;1.30;;;1.20;;
8419;SDS011;4247;48.550;8.822;2022-08-01T02:21:49;0.90;;;0.90;;
8419;SDS011;4247;48.550;8.822;2022-08-01T02:24:24;0.90;;;0.90;;
8419;SDS011;4247;48.550;8.822;2022-08-01T02:26:58;0.90;;;0.90;;
8419;SDS011;4247;48.550;8.822;2022-08-01T02:29:33;0.70;;;0.70;;
8419;SDS011;4247;48.550;8.822;2022-08-01T02:32:04;1.07;;;1.00;;
8419;SDS011;4247;48.550;8.822;2022-08-01T02:34:35;1.77;;;1.10;;
8419;SDS011;4247;48.550;8.822;2022-08-01T02:37:02;1.00;;;0.90;;
8419;SDS011;4247;48.550;8.822;2022-08-01T02:39:31;1.63;;;1.00;;
8419;SDS011;4247;48.550;8.822;2022-08-01T02:42:00;2.03;;;1.00;;
8419;SDS011;4247;48.550;8.822;2022-08-01T02:44:31;0.90;;;0.90;;
8419;SDS011;4247;48.550;8.822;2022-08-01T02:47:08;1.20;;;1.10;;
8419;SDS011;4247;48.550;8.822;2022-08-01T02:49:36;0.80;;;0.80;;
8419;SDS011;4247;48.550;8.822;2022-08-01T02:52:07;0.93;;;0.93;;
8419;SDS011;4247;48.550;8.822;2022-08-01T02:54:36;1.20;;;1.10;;
8419;SDS011;4247;48.550;8.822;2022-08-01T02:57:06;0.90;;;0.90;;
8419;SDS011;4247;48.550;8.822;2022-08-01T02:59:37;1.30;;;1.20;;
8419;SDS011;4247;48.550;8.822;2022-08-01T03:02:05;1.43;;;1.30;;
8419;SDS011;4247;48.550;8.822;2022-08-01T03:04:34;2.73;;;1.10;;
8419;SDS011;4247;48.550;8.822;2022-08-01T03:07:04;1.83;;;1.17;;
8419;SDS011;4247;48.550;8.822;2022-08-01T03:09:33;5.30;;;1.30;;
8419;SDS011;4247;48.550;8.822;2022-08-01T03:12:06;0.93;;;0.93;;
8419;SDS011;4247;48.550;8.822;2022-08-01T03:14:42;1.20;;;1.10;;
8419;SDS011;4247;48.550;8.822;2022-08-01T03:17:11;1.83;;;1.10;;
8419;SDS011;4247;48.550;8.822;2022-08-01T03:19:38;2.73;;;2.30;;
8419;SDS011;4247;48.550;8.822;2022-08-01T03:22:08;1.20;;;0.90;;
8419;SDS011;4247;48.550;8.822;2022-08-01T03:24:37;1.13;;;0.77;;
8419;SDS011;4247;48.550;8.822;2022-08-01T03:27:07;0.93;;;0.90;;
8419;SDS011;4247;48.550;8.822;2022-08-01T03:29:35;2.20;;;1.40;;
8419;SDS011;4247;48.550;8.822;2022-08-01T03:32:06;1.03;;;0.80;;
8419;SDS011;4247;48.550;8.822;2022-08-01T03:34:35;1.70;;;1.30;;
8419;SDS011;4247;48.550;8.822;2022-08-01T03:37:03;2.17;;;1.13;;
8419;SDS011;4247;48.550;8.822;2022-08-01T03:39:36;3.07;;;1.37;;
8419;SDS011;4247;48.550;8.822;2022-08-01T03:42:12;2.53;;;0.90;;
8419;SDS011;4247;48.550;8.822;2022-08-01T03:44:46;1.13;;;1.00;;
8419;SDS011;4247;48.550;8.822;2022-08-01T03:47:21;2.27;;;1.10;;
8419;SDS011;4247;48.550;8.822;2022-08-01T03:49:50;1.37;;;1.27;;
8419;SDS011;4247;48.550;8.822;2022-08-01T03:52:19;2.50;;;1.30;;
8419;SDS011;4247;48.550;8.822;2022-08-01T03:54:52;1.57;;;1.47;;
8419;SDS011;4247;48.550;8.822;2022-08-01T03:57:21;1.10;;;1.00;;
8419;SDS011;4247;48.550;8.822;2022-08-01T03:59:50;1.43;;;1.33;;
8419;SDS011;4247;48.550;8.822;2022-08-01T04:02:18;6.70;;;3.93;;
8419;SDS011;4247;48.550;8.822;2022-08-01T04:04:47;4.37;;;2.63;;
8419;SDS011;4247;48.550;8.822;2022-08-01T04:07:22;6.30;;;2.00;;
8419;SDS011;4247;48.550;8.822;2022-08-01T04:09:49;2.10;;;1.23;;
8419;SDS011;4247;48.550;8.822;2022-08-01T04:12:17;1.40;;;1.30;;
8419;SDS011;4247;48.550;8.822;2022-08-01T04:14:44;1.70;;;1.40;;
8419;SDS011;4247;48.550;8.822;2022-08-01T04:17:14;2.33;;;1.57;;
8419;SDS011;4247;48.550;8.822;2022-08-01T04:19:43;3.20;;;1.20;;
8419;SDS011;4247;48.550;8.822;2022-08-01T04:22:10;2.30;;;1.60;;
8419;SDS011;4247;48.550;8.822;2022-08-01T04:24:39;1.57;;;1.43;;
8419;SDS011;4247;48.550;8.822;2022-08-01T04:27:09;2.77;;;1.30;;
8419;SDS011;4247;48.550;8.822;2022-08-01T04:29:40;2.03;;;1.23;;
8419;SDS011;4247;48.550;8.822;2022-08-01T04:32:10;2.40;;;1.00;;
8419;SDS011;4247;48.550;8.822;2022-08-01T04:34:39;3.87;;;1.20;;
8419;SDS011;4247;48.550;8.822;2022-08-01T04:37:09;2.50;;;1.50;;
8419;SDS011;4247;48.550;8.822;2022-08-01T04:39:37;1.47;;;1.30;;
8419;SDS011;4247;48.550;8.822;2022-08-01T04:42:07;2.03;;;1.20;;
8419;SDS011;4247;48.550;8.822;2022-08-01T04:44:37;1.40;;;1.30;;
8419;SDS011;4247;48.550;8.822;2022-08-01T04:47:05;4.57;;;1.37;;
8419;SDS011;4247;48.550;8.822;2022-08-01T04:49:39;1.50;;;1.40;;
8419;SDS011;4247;48.550;8.822;2022-08-01T04:52:07;1.97;;;1.43;;
8419;SDS011;4247;48.550;8.822;2022-08-01T04:54:36;1.23;;;1.10;;
8419;SDS011;4247;48.550;8.822;2022-08-01T04:57:03;1.57;;;1.10;;
8419;SDS011;4247;48.550;8.822;2022-08-01T04:59:30;1.27;;;1.17;;
8419;SDS011;4247;48.550;8.822;2022-08-01T05:02:09;1.70;;;1.60;;
8419;SDS011;4247;48.550;8.822;2022-08-01T05:04:36;2.50;;;1.47;;
8419;SDS011;4247;48.550;8.822;2022-08-01T05:07:04;1.10;;;1.00;;
8419;SDS011;4247;48.550;8.822;2022-08-01T05:09:35;2.10;;;1.37;;
8419;SDS011;4247;48.550;8.822;2022-08-01T05:12:02;1.10;;;1.10;;
8419;SDS011;4247;48.550;8.822;2022-08-01T05:14:31;2.93;;;1.13;;
8419;SDS011;4247;48.550;8.822;2022-08-01T05:16:58;1.27;;;1.10;;
8419;SDS011;4247;48.550;8.822;2022-08-01T05:19:28;1.70;;;1.60;;
8419;SDS011;4247;48.550;8.822;2022-08-01T05:22:00;1.20;;;1.10;;
8419;SDS011;4247;48.550;8.822;2022-08-01T05:24:29;0.93;;;0.93;;
8419;SDS011;4247;48.550;8.822;2022-08-01T05:26:58;1.37;;;1.27;;
8419;SDS011;4247;48.550;8.822;2022-08-01T05:29:26;1.60;;;1.50;;
8419;SDS011;4247;48.550;8.822;2022-08-01T05:31:53;1.70;;;1.53;;
8419;SDS011;4247;48.550;8.822;2022-08-01T05:34:20;5.23;;;1.43;;
8419;SDS011;4247;48.550;8.822;2022-08-01T05:36:47;4.10;;;1.20;;
8419;SDS011;4247;48.550;8.822;2022-08-01T05:39:14;3.63;;;1.53;;
8419;SDS011;4247;48.550;8.822;2022-08-01T05:41:41;3.23;;;1.60;;
8419;SDS011;4247;48.550;8.822;2022-08-01T05:44:11;2.47;;;1.50;;
8419;SDS011;4247;48.550;8.822;2022-08-01T05:46:38;3.47;;;0.97;;
8419;SDS011;4247;48.550;8.822;2022-08-01T05:49:05;2.60;;;1.40;;
8419;SDS011;4247;48.550;8.822;2022-08-01T05:51:32;1.80;;;1.33;;
8419;SDS011;4247;48.550;8.822;2022-08-01T05:53:59;3.17;;;1.20;;
8419;SDS011;4247;48.550;8.822;2022-08-01T05:56:27;1.40;;;1.23;;
8419;SDS011;4247;48.550;8.822;2022-08-01T05:58:54;2.70;;;1.30;;
8419;SDS011;4247;48.550;8.822;2022-08-01T06:01:22;5.43;;;1.53;;
8419;SDS011;4247;48.550;8.822;2022-08-01T06:03:49;2.20;;;1.37;;
8419;SDS011;4247;48.550;8.822;2022-08-01T06:06:18;2.60;;;1.10;;
8419;SDS011;4247;48.550;8.822;2022-08-01T06:08:45;4.20;;;1.30;;
8419;SDS011;4247;48.550;8.822;2022-08-01T06:11:11;9.33;;;1.80;;
8419;SDS011;4247;48.550;8.822;2022-08-01T06:13:39;4.50;;;1.37;;
8419;SDS011;4247;48.550;8.822;2022-08-01T06:16:05;1.07;;;1.00;;
8419;SDS011;4247;48.550;8.822;2022-08-01T06:18:35;5.43;;;1.20;;
8419;SDS011;4247;48.550;8.822;2022-08-01T06:21:02;2.50;;;1.20;;
8419;SDS011;4247;48.550;8.822;2022-08-01T06:23:29;1.80;;;1.30;;
8419;SDS011;4247;48.550;8.822;2022-08-01T06:25:55;3.27;;;1.20;;
8419;SDS011;4247;48.550;8.822;2022-08-01T06:28:23;3.67;;;1.10;;
8419;SDS011;4247;48.550;8.822;2022-08-01T06:30:51;2.03;;;1.13;;
8419;SDS011;4247;48.550;8.822;2022-08-01T06:33:18;1.23;;;1.10;;
8419;SDS011;4247;48.550;8.822;2022-08-01T06:35:47;1.10;;;1.00;;
8419;SDS011;4247;48.550;8.822;2022-08-01T06:38:14;1.20;;;1.10;;
8419;SDS011;4247;48.550;8.822;2022-08-01T06:40:40;2.13;;;0.90;;
8419;SDS011;4247;48.550;8.822;2022-08-01T06:43:07;1.07;;;0.90;;
8419;SDS011;4247;48.550;8.822;2022-08-01T06:45:36;0.80;;;0.80;;
8419;SDS011;4247;48.550;8.822;2022-08-01T06:48:03;1.00;;;0.90;;
8419;SDS011;4247;48.550;8.822;2022-08-01T06:50:30;1.17;;;0.87;;
8419;SDS011;4247;48.550;8.822;2022-08-01T06:52:59;3.00;;;1.13;;
8419;SDS011;4247;48.550;8.822;2022-08-01T06:55:26;4.30;;;0.83;;
8419;SDS011;4247;48.550;8.822;2022-08-01T06:57:53;0.63;;;0.63;;
8419;SDS011;4247;48.550;8.822;2022-08-01T07:00:21;1.47;;;0.90;;
8419;SDS011;4247;48.550;8.822;2022-08-01T07:02:51;0.73;;;0.70;;
8419;SDS011;4247;48.550;8.822;2022-08-01T07:05:19;0.57;;;0.57;;
8419;SDS011;4247;48.550;8.822;2022-08-01T07:07:46;4.93;;;0.90;;
8419;SDS011;4247;48.550;8.822;2022-08-01T07:10:14;0.83;;;0.80;;
8419;SDS011;4247;48.550;8.822;2022-08-01T07:12:42;3.00;;;0.70;;
8419;SDS011;4247;48.550;8.822;2022-08-01T07:15:09;3.30;;;0.93;;
8419;SDS011;4247;48.550;8.822;2022-08-01T07:17:37;0.80;;;0.70;;
8419;SDS011;4247;48.550;8.822;2022-08-01T07:20:06;2.70;;;0.80;;
8419;SDS011;4247;48.550;8.822;2022-08-01T07:22:33;0.70;;;0.70;;
8419;SDS011;4247;48.550;8.822;2022-08-01T07:25:02;3.63;;;0.80;;
8419;SDS011;4247;48.550;8.822;2022-08-01T07:27:32;0.73;;;0.70;;
8419;SDS011;4247;48.550;8.822;2022-08-01T07:29:59;5.37;;;1.13;;
8419;SDS011;4247;48.550;8.822;2022-08-01T07:32:26;0.73;;;0.73;;
8419;SDS011;4247;48.550;8.822;2022-08-01T07:34:54;1.37;;;0.97;;
8419;SDS011;4247;48.550;8.822;2022-08-01T07:37:21;0.77;;;0.77;;
8419;SDS011;4247;48.550;8.822;2022-08-01T07:39:48;1.53;;;1.00;;
8419;SDS011;4247;48.550;8.822;2022-08-01T07:42:16;1.00;;;0.90;;
8419;SDS011;4247;48.550;8.822;2022-08-01T07:44:44;1.43;;;1.07;;
8419;SDS011;4247;48.550;8.822;2022-08-01T07:47:11;1.27;;;1.00;;
8419;SDS011;4247;48.550;8.822;2022-08-01T07:49:38;1.10;;;1.00;;
8419;SDS011;4247;48.550;8.822;2022-08-01T07:52:05;1.00;;;0.90;;
8419;SDS011;4247;48.550;8.822;2022-08-01T07:54:32;2.63;;;1.20;;
8419;SDS011;4247;48.550;8.822;2022-08-01T07:57:02;2.00;;;0.90;;
8419;SDS011;4247;48.550;8.822;2022-08-01T07:59:29;1.00;;;1.00;;
8419;SDS011;4247;48.550;8.822;2022-08-01T08:01:57;2.40;;;1.47;;
8419;SDS011;4247;48.550;8.822;2022-08-01T08:04:25;2.70;;;1.00;;
8419;SDS011;4247;48.550;8.822;2022-08-01T08:06:52;0.87;;;0.87;;
8419;SDS011;4247;48.550;8.822;2022-08-01T08:09:19;2.03;;;1.60;;
8419;SDS011;4247;48.550;8.822;2022-08-01T08:11:46;1.17;;;1.03;;
8419;SDS011;4247;48.550;8.822;2022-08-01T08:14:13;1.20;;;1.10;;
8419;SDS011;4247;48.550;8.822;2022-08-01T08:16:40;1.27;;;1.17;;
8419;SDS011;4247;48.550;8.822;2022-08-01T08:19:09;1.73;;;1.07;;
8419;SDS011;4247;48.550;8.822;2022-08-01T08:21:36;1.63;;;1.00;;
8419;SDS011;4247;48.550;8.822;2022-08-01T08:24:03;1.30;;;1.00;;
8419;SDS011;4247;48.550;8.822;2022-08-01T08:26:47;0.90;;;0.90;;
8419;SDS011;4247;48.550;8.822;2022-08-01T08:29:15;2.60;;;0.80;;
8419;SDS011;4247;48.550;8.822;2022-08-01T08:31:42;0.90;;;0.90;;
8419;SDS011;4247;48.550;8.822;2022-08-01T08:34:11;0.80;;;0.80;;
8419;SDS011;4247;48.550;8.822;2022-08-01T08:36:38;2.87;;;1.13;;
8419;SDS011;4247;48.550;8.822;2022-08-01T08:39:05;1.10;;;1.00;;
8419;SDS011;4247;48.550;8.822;2022-08-01T08:41:33;1.40;;;1.10;;
8419;SDS011;4247;48.550;8.822;2022-08-01T08:44:00;0.90;;;0.90;;
8419;SDS011;4247;48.550;8.822;2022-08-01T08:46:27;6.70;;;1.20;;
8419;SDS011;4247;48.550;8.822;2022-08-01T08:48:55;1.20;;;1.10;;
8419;SDS011;4247;48.550;8.822;2022-08-01T08:51:25;1.27;;;1.17;;
8419;SDS011;4247;48.550;8.822;2022-08-01T08:53:53;2.47;;;0.83;;
8419;SDS011;4247;48.550;8.822;2022-08-01T08:56:23;1.13;;;1.03;;
8419;SDS011;4247;48.550;8.822;2022-08-01T08:58:50;0.90;;;0.90;;
8419;SDS011;4247;48.550;8.822;2022-08-01T09:01:17;0.80;;;0.80;;
8419;SDS011;4247;48.550;8.822;2022-08-01T09:03:44;1.10;;;1.00;;
8419;SDS011;4247;48.550;8.822;2022-08-01T09:06:11;1.20;;;0.70;;
8419;SDS011;4247;48.550;8.822;2022-08-01T09:08:40;1.33;;;1.10;;
8419;SDS011;4247;48.550;8.822;2022-08-01T09:11:07;2.67;;;0.80;;
8419;SDS011;4247;48.550;8.822;2022-08-01T09:13:34;1.03;;;0.90;;
8419;SDS011;4247;48.550;8.822;2022-08-01T09:16:01;1.10;;;1.00;;
8419;SDS011;4247;48.550;8.822;2022-08-01T09:21:10;1.27;;;1.00;;
8419;SDS011;4247;48.550;8.822;2022-08-01T09:23:41;1.40;;;0.93;;
8419;SDS011;4247;48.550;8.822;2022-08-01T09:26:10;0.77;;;0.77;;
8419;SDS011;4247;48.550;8.822;2022-08-01T09:28:38;1.30;;;0.70;;
8419;SDS011;4247;48.550;8.822;2022-08-01T09:34:05;1.97;;;1.30;;
8419;SDS011;4247;48.550;8.822;2022-08-01T09:36:43;0.90;;;0.90;;
8419;SDS011;4247;48.550;8.822;2022-08-01T09:39:14;0.87;;;0.80;;
8419;SDS011;4247;48.550;8.822;2022-08-01T09:44:48;0.80;;;0.80;;
8419;SDS011;4247;48.550;8.822;2022-08-01T09:47:16;1.07;;;0.80;;
8419;SDS011;4247;48.550;8.822;2022-08-01T09:49:45;0.90;;;0.90;;
8419;SDS011;4247;48.550;8.822;2022-08-01T09:52:22;1.33;;;0.60;;
8419;SDS011;4247;48.550;8.822;2022-08-01T09:54:53;1.50;;;0.70;;
8419;SDS011;4247;48.550;8.822;2022-08-01T09:57:23;1.43;;;1.03;;
8419;SDS011;4247;48.550;8.822;2022-08-01T09:59:54;0.70;;;0.70;;
8419;SDS011;4247;48.550;8.822;2022-08-01T10:05:10;0.80;;;0.80;;
8419;SDS011;4247;48.550;8.822;2022-08-01T10:10:24;0.80;;;0.80;;
8419;SDS011;4247;48.550;8.822;2022-08-01T10:12:52;0.60;;;0.60;;
8419;SDS011;4247;48.550;8.822;2022-08-01T10:15:22;1.20;;;1.00;;
8419;SDS011;4247;48.550;8.822;2022-08-01T10:17:52;1.03;;;0.73;;
8419;SDS011;4247;48.550;8.822;2022-08-01T10:20:21;0.53;;;0.53;;
8419;SDS011;4247;48.550;8.822;2022-08-01T10:22:50;0.80;;;0.80;;
8419;SDS011;4247;48.550;8.822;2022-08-01T10:25:20;1.53;;;0.70;;
8419;SDS011;4247;48.550;8.822;2022-08-01T10:27:49;1.20;;;1.10;;
8419;SDS011;4247;48.550;8.822;2022-08-01T10:30:20;2.67;;;1.30;;
8419;SDS011;4247;48.550;8.822;2022-08-01T10:32:49;2.47;;;1.27;;
8419;SDS011;4247;48.550;8.822;2022-08-01T10:35:17;1.47;;;0.80;;
8419;SDS011;4247;48.550;8.822;2022-08-01T10:37:45;1.23;;;0.70;;
8419;SDS011;4247;48.550;8.822;2022-08-01T10:40:15;1.03;;;0.60;;
8419;SDS011;4247;48.550;8.822;2022-08-01T10:42:42;0.70;;;0.70;;
8419;SDS011;4247;48.550;8.822;2022-08-01T10:45:27;0.97;;;0.80;;
8419;SDS011;4247;48.550;8.822;2022-08-01T10:47:56;0.73;;;0.73;;
8419;SDS011;4247;48.550;8.822;2022-08-01T10:50:27;1.53;;;0.60;;
8419;SDS011;4247;48.550;8.822;2022-08-01T10:53:11;2.30;;;0.83;;
8419;SDS011;4247;48.550;8.822;2022-08-01T10:55:52;0.60;;;0.60;;
8419;SDS011;4247;48.550;8.822;2022-08-01T10:58:24;1.10;;;0.80;;
8419;SDS011;4247;48.550;8.822;2022-08-01T11:04:04;0.90;;;0.60;;
8419;SDS011;4247;48.550;8.822;2022-08-01T11:09:29;1.33;;;0.90;;
8419;SDS011;4247;48.550;8.822;2022-08-01T11:12:05;1.13;;;0.80;;
8419;SDS011;4247;48.550;8.822;2022-08-01T11:14:35;0.70;;;0.60;;
8419;SDS011;4247;48.550;8.822;2022-08-01T11:20:57;0.80;;;0.80;;
8419;SDS011;4247;48.550;8.822;2022-08-01T11:23:26;0.70;;;0.60;;
8419;SDS011;4247;48.550;8.822;2022-08-01T11:26:06;0.80;;;0.80;;
8419;SDS011;4247;48.550;8.822;2022-08-01T11:31:40;1.03;;;0.70;;
8419;SDS011;4247;48.550;8.822;2022-08-01T11:34:07;4.80;;;0.90;;
8419;SDS011;4247;48.550;8.822;2022-08-01T11:36:38;0.70;;;0.70;;
8419;SDS011;4247;48.550;8.822;2022-08-01T11:42:17;2.50;;;0.83;;
8419;SDS011;4247;48.550;8.822;2022-08-01T11:44:47;1.23;;;0.70;;
8419;SDS011;4247;48.550;8.822;2022-08-01T11:47:15;1.07;;;0.63;;
8419;SDS011;4247;48.550;8.822;2022-08-01T11:52:49;1.50;;;0.90;;
8419;SDS011;4247;48.550;8.822;2022-08-01T11:55:23;0.63;;;0.60;;
8419;SDS011;4247;48.550;8.822;2022-08-01T11:57:50;1.07;;;0.70;;
8419;SDS011;4247;48.550;8.822;2022-08-01T12:03:42;0.40;;;0.40;;
8419;SDS011;4247;48.550;8.822;2022-08-01T12:06:09;0.57;;;0.57;;
8419;SDS011;4247;48.550;8.822;2022-08-01T12:08:38;1.23;;;0.60;;
8419;SDS011;4247;48.550;8.822;2022-08-01T12:11:04;0.70;;;0.60;;
8419;SDS011;4247;48.550;8.822;2022-08-01T12:16:17;2.40;;;0.70;;
8419;SDS011;4247;48.550;8.822;2022-08-01T12:18:44;1.00;;;0.70;;
8419;SDS011;4247;48.550;8.822;2022-08-01T12:21:11;1.17;;;0.70;;
8419;SDS011;4247;48.550;8.822;2022-08-01T12:23:39;0.50;;;0.50;;
8419;SDS011;4247;48.550;8.822;2022-08-01T12:29:30;0.70;;;0.70;;
8419;SDS011;4247;48.550;8.822;2022-08-01T12:31:58;2.00;;;0.70;;
8419;SDS011;4247;48.550;8.822;2022-08-01T12:34:25;0.50;;;0.50;;
8419;SDS011;4247;48.550;8.822;2022-08-01T12:39:51;0.70;;;0.60;;
8419;SDS011;4247;48.550;8.822;2022-08-01T12:42:18;0.50;;;0.50;;
8419;SDS011;4247;48.550;8.822;2022-08-01T12:44:48;1.37;;;0.40;;
8419;SDS011;4247;48.550;8.822;2022-08-01T12:50:15;2.37;;;0.60;;
8419;SDS011;4247;48.550;8.822;2022-08-01T12:52:47;0.57;;;0.53;;
8419;SDS011;4247;48.550;8.822;2022-08-01T12:55:16;0.60;;;0.60;;
8419;SDS011;4247;48.550;8.822;2022-08-01T13:00:49;2.10;;;0.47;;
8419;SDS011;4247;48.550;8.822;2022-08-01T13:03:27;0.60;;;0.60;;
8419;SDS011;4247;48.550;8.822;2022-08-01T13:05:55;3.33;;;0.67;;
8419;SDS011;4247;48.550;8.822;2022-08-01T13:08:29;0.70;;;0.53;;
8419;SDS011;4247;48.550;8.822;2022-08-01T13:11:01;0.60;;;0.60;;
8419;SDS011;4247;48.550;8.822;2022-08-01T13:13:37;0.80;;;0.70;;
8419;SDS011;4247;48.550;8.822;2022-08-01T13:16:06;0.73;;;0.60;;
8419;SDS011;4247;48.550;8.822;2022-08-01T13:21:57;0.53;;;0.53;;
8419;SDS011;4247;48.550;8.822;2022-08-01T13:24:24;0.80;;;0.80;;
8419;SDS011;4247;48.550;8.822;2022-08-01T13:26:54;1.97;;;0.70;;
8419;SDS011;4247;48.550;8.822;2022-08-01T13:29:31;0.97;;;0.60;;
8419;SDS011;4247;48.550;8.822;2022-08-01T13:38:58;0.93;;;0.60;;
8419;SDS011;4247;48.550;8.822;2022-08-01T13:41:43;1.87;;;0.70;;
8419;SDS011;4247;48.550;8.822;2022-08-01T13:44:11;2.50;;;0.70;;
8419;SDS011;4247;48.550;8.822;2022-08-01T13:46:39;0.67;;;0.50;;
8419;SDS011;4247;48.550;8.822;2022-08-01T13:52:02;1.03;;;0.70;;
8419;SDS011;4247;48.550;8.822;2022-08-01T13:54:30;2.53;;;1.13;;
8419;SDS011;4247;48.550;8.822;2022-08-01T13:56:58;1.70;;;0.80;;
8419;SDS011;4247;48.550;8.822;2022-08-01T13:59:26;2.63;;;0.63;;
8419;SDS011;4247;48.550;8.822;2022-08-01T14:01:54;2.63;;;0.83;;
8419;SDS011;4247;48.550;8.822;2022-08-01T14:04:21;0.90;;;0.80;;
8419;SDS011;4247;48.550;8.822;2022-08-01T14:06:48;0.97;;;0.80;;
8419;SDS011;4247;48.550;8.822;2022-08-01T14:09:16;1.00;;;0.80;;
8419;SDS011;4247;48.550;8.822;2022-08-01T14:11:44;0.87;;;0.87;;
8419;SDS011;4247;48.550;8.822;2022-08-01T14:20:26;0.90;;;0.73;;
8419;SDS011;4247;48.550;8.822;2022-08-01T14:22:57;0.70;;;0.67;;
8419;SDS011;4247;48.550;8.822;2022-08-01T14:25:24;0.80;;;0.80;;
8419;SDS011;4247;48.550;8.822;2022-08-01T14:27:51;1.30;;;1.20;;
8419;SDS011;4247;48.550;8.822;2022-08-01T14:33:34;0.73;;;0.73;;
8419;SDS011;4247;48.550;8.822;2022-08-01T14:36:01;0.77;;;0.77;;
8419;SDS011;4247;48.550;8.822;2022-08-01T14:38:28;0.80;;;0.80;;
8419;SDS011;4247;48.550;8.822;2022-08-01T14:40:55;1.93;;;1.00;;
8419;SDS011;4247;48.550;8.822;2022-08-01T14:46:15;2.93;;;1.27;;
8419;SDS011;4247;48.550;8.822;2022-08-01T14:48:43;3.90;;;0.90;;
8419;SDS011;4247;48.550;8.822;2022-08-01T14:51:10;0.90;;;0.90;;
8419;SDS011;4247;48.550;8.822;2022-08-01T14:53:37;1.03;;;0.93;;
8419;SDS011;4247;48.550;8.822;2022-08-01T14:56:16;1.17;;;0.80;;
8419;SDS011;4247;48.550;8.822;2022-08-01T14:58:43;0.83;;;0.83;;
8419;SDS011;4247;48.550;8.822;2022-08-01T15:01:10;0.97;;;0.70;;
8419;SDS011;4247;48.550;8.822;2022-08-01T15:03:37;0.90;;;0.70;;
8419;SDS011;4247;48.550;8.822;2022-08-01T15:06:05;0.80;;;0.70;;
8419;SDS011;4247;48.550;8.822;2022-08-01T15:15:09;1.17;;;1.07;;
8419;SDS011;4247;48.550;8.822;2022-08-01T15:17:36;1.90;;;0.80;;
8419;SDS011;4247;48.550;8.822;2022-08-01T15:20:04;1.73;;;1.00;;
8419;SDS011;4247;48.550;8.822;2022-08-01T15:22:33;2.50;;;0.50;;
8419;SDS011;4247;48.550;8.822;2022-08-01T15:25:00;1.63;;;0.77;;
8419;SDS011;4247;48.550;8.822;2022-08-01T15:27:29;3.07;;;1.13;;
8419;SDS011;4247;48.550;8.822;2022-08-01T15:29:56;1.57;;;1.00;;
8419;SDS011;4247;48.550;8.822;2022-08-01T15:35:37;1.53;;;0.90;;
8419;SDS011;4247;48.550;8.822;2022-08-01T15:38:05;1.07;;;0.90;;
8419;SDS011;4247;48.550;8.822;2022-08-01T15:40:32;3.03;;;0.90;;
8419;SDS011;4247;48.550;8.822;2022-08-01T15:42:59;1.13;;;0.70;;
8419;SDS011;4247;48.550;8.822;2022-08-01T15:48:21;1.50;;;1.00;;
8419;SDS011;4247;48.550;8.822;2022-08-01T15:50:48;0.80;;;0.80;;
8419;SDS011;4247;48.550;8.822;2022-08-01T15:53:16;1.27;;;0.70;;
8419;SDS011;4247;48.550;8.822;2022-08-01T15:55:43;0.97;;;0.90;;
8419;SDS011;4247;48.550;8.822;2022-08-01T15:58:22;0.70;;;0.60;;
8419;SDS011;4247;48.550;8.822;2022-08-01T16:00:49;2.63;;;0.80;;
8419;SDS011;4247;48.550;8.822;2022-08-01T16:03:16;0.60;;;0.60;;
8419;SDS011;4247;48.550;8.822;2022-08-01T16:05:43;0.97;;;0.70;;
8419;SDS011;4247;48.550;8.822;2022-08-01T16:08:10;2.30;;;0.70;;
8419;SDS011;4247;48.550;8.822;2022-08-01T16:10:54;1.63;;;0.70;;
8419;SDS011;4247;48.550;8.822;2022-08-01T16:13:21;0.80;;;0.80;;
8419;SDS011;4247;48.550;8.822;2022-08-01T16:15:48;0.70;;;0.70;;
8419;SDS011;4247;48.550;8.822;2022-08-01T16:18:15;1.47;;;0.80;;
8419;SDS011;4247;48.550;8.822;2022-08-01T16:20:42;2.40;;;0.90;;
8419;SDS011;4247;48.550;8.822;2022-08-01T16:23:09;0.40;;;0.40;;
8419;SDS011;4247;48.550;8.822;2022-08-01T16:25:36;2.23;;;0.80;;
8419;SDS011;4247;48.550;8.822;2022-08-01T16:28:05;3.27;;;0.67;;
8419;SDS011;4247;48.550;8.822;2022-08-01T16:30:33;1.67;;;0.87;;
8419;SDS011;4247;48.550;8.822;2022-08-01T16:33:01;1.13;;;0.60;;
8419;SDS011;4247;48.550;8.822;2022-08-01T16:35:28;0.70;;;0.70;;
8419;SDS011;4247;48.550;8.822;2022-08-01T16:37:55;2.77;;;0.70;;
8419;SDS011;4247;48.550;8.822;2022-08-01T16:40:22;1.20;;;0.63;;
8419;SDS011;4247;48.550;8.822;2022-08-01T16:42:50;4.57;;;0.80;;
8419;SDS011;4247;48.550;8.822;2022-08-01T16:45:37;0.90;;;0.60;;
8419;SDS011;4247;48.550;8.822;2022-08-01T16:48:04;0.57;;;0.50;;
8419;SDS011;4247;48.550;8.822;2022-08-01T16:50:31;0.57;;;0.50;;
8419;SDS011;4247;48.550;8.822;2022-08-01T16:52:58;1.70;;;0.73;;
8419;SDS011;4247;48.550;8.822;2022-08-01T16:55:24;0.50;;;0.50;;
8419;SDS011;4247;48.550;8.822;2022-08-01T17:00:54;2.00;;;0.60;;